Empalme Villa Constitucion, Argentina
Current Conditions -  °F | °C
As of 7:00 AM on Friday 21 Nov 2014 (Local Time) from SAAR Reporting Station
Light Rain Light Rain  
Wind Chill: 18°   Ceiling: 5000
Heat Index: 18°   Visibility: 5mi
Dew Point: 17°   Wind: 5mph
Humidity: 94%   Direction: 110°ESE
Pressure: 29.97"   Gusts: NA
Location:  33.27°S, 60.38°W
Report Text: SAAR 211000Z 11004KT 8000 -RA BR SCT020 OVC05018/17 Q1015
Loading
Personal Weather Stations






























Interactive Weather Map New forecast layout! Learn more

10-Day Weather Forecast

Advertisements
Track Severe Weather on mobile